createdAt,value
2022-08-05T00:19:09.003Z,44.5
2022-08-05T00:48:05.441Z,45.03
2022-08-05T01:16:26.907Z,46.31
2022-08-05T01:44:38.625Z,47.39
2022-08-05T02:13:17.680Z,50.7
2022-08-05T02:41:58.369Z,51.44
2022-08-05T03:09:58.786Z,51.1
2022-08-05T03:38:14.979Z,51.59
2022-08-05T04:06:29.751Z,51.99
2022-08-05T04:34:49.089Z,52.43
2022-08-05T05:03:07.065Z,53.35
2022-08-05T05:59:29.003Z,52.64
2022-08-05T06:28:20.852Z,48.98
2022-08-05T06:56:35.506Z,47.78
2022-08-05T07:25:55.846Z,45.75
2022-08-05T07:53:51.272Z,43
2022-08-05T08:22:15.813Z,38.68
2022-08-05T08:50:52.679Z,38.62
2022-08-05T09:19:15.046Z,36.55
2022-08-05T09:48:21.240Z,39.11
2022-08-05T10:17:36.793Z,37.42
2022-08-05T10:45:43.264Z,39
2022-08-05T11:14:13.840Z,39.05
2022-08-05T11:43:58.534Z,38.33
2022-08-05T12:11:52.715Z,38.45
2022-08-05T12:41:04.616Z,38.39
2022-08-05T13:10:13.007Z,38.36
2022-08-05T13:22:30.247Z,39.62
2022-08-05T13:50:55.768Z,42.76
2022-08-05T14:20:08.111Z,43.71
2022-08-05T14:48:34.172Z,47
2022-08-05T15:16:51.746Z,45.23
2022-08-05T15:46:03.760Z,46.65
2022-08-05T16:14:29.882Z,45.97
2022-08-05T16:43:32.086Z,46.24
2022-08-05T17:12:50.826Z,45.46
2022-08-05T17:41:03.278Z,45.23
2022-08-05T18:10:11.497Z,47.89
2022-08-05T18:38:28.380Z,48.61
2022-08-05T19:07:08.874Z,53.59
2022-08-05T19:35:57.791Z,53.52
2022-08-05T20:04:09.505Z,49.86
2022-08-05T20:32:46.756Z,49.37
2022-08-05T21:01:39.099Z,53.72
2022-08-05T21:29:51.427Z,55.82
2022-08-05T21:58:12.183Z,56.47
2022-08-05T22:26:38.619Z,56.38
2022-08-05T22:55:37.049Z,54.51
2022-08-05T23:23:52.716Z,53.29
2022-08-05T23:52:28.341Z,52.2
